sensor_id;sensor_type;location;lat;lon;timestamp;temperature;humidity
23885;DHT22;12123;53.088;7.392;2022-08-03T00:00:26;21.60;99.90
23885;DHT22;12123;53.088;7.392;2022-08-03T00:02:52;21.60;99.90
23885;DHT22;12123;53.088;7.392;2022-08-03T00:05:20;21.60;99.90
23885;DHT22;12123;53.088;7.392;2022-08-03T00:07:46;21.60;99.90
23885;DHT22;12123;53.088;7.392;2022-08-03T00:10:15;21.60;99.90
23885;DHT22;12123;53.088;7.392;2022-08-03T00:12:42;21.60;99.90
23885;DHT22;12123;53.088;7.392;2022-08-03T00:15:09;21.70;99.90
23885;DHT22;12123;53.088;7.392;2022-08-03T00:17:42;21.70;99.90
23885;DHT22;12123;53.088;7.392;2022-08-03T00:20:20;21.70;99.90
23885;DHT22;12123;53.088;7.392;2022-08-03T00:22:47;21.70;99.90
23885;DHT22;12123;53.088;7.392;2022-08-03T00:25:14;21.60;99.90
23885;DHT22;12123;53.088;7.392;2022-08-03T00:27:41;21.70;99.90
23885;DHT22;12123;53.088;7.392;2022-08-03T00:30:08;21.70;99.90
23885;DHT22;12123;53.088;7.392;2022-08-03T00:32:35;21.70;99.90
23885;DHT22;12123;53.088;7.392;2022-08-03T00:35:05;21.70;99.90
23885;DHT22;12123;53.088;7.392;2022-08-03T00:37:37;21.70;99.90
23885;DHT22;12123;53.088;7.392;2022-08-03T00:40:11;21.70;99.90
23885;DHT22;12123;53.088;7.392;2022-08-03T00:42:55;21.70;99.90
23885;DHT22;12123;53.088;7.392;2022-08-03T00:45:28;21.80;99.90
23885;DHT22;12123;53.088;7.392;2022-08-03T00:47:56;21.80;99.90
23885;DHT22;12123;53.088;7.392;2022-08-03T00:50:24;21.70;99.90
23885;DHT22;12123;53.088;7.392;2022-08-03T00:52:53;21.70;99.90
23885;DHT22;12123;53.088;7.392;2022-08-03T00:55:21;21.70;99.90
23885;DHT22;12123;53.088;7.392;2022-08-03T00:57:48;21.70;99.90
23885;DHT22;12123;53.088;7.392;2022-08-03T01:00:18;21.80;99.90
23885;DHT22;12123;53.088;7.392;2022-08-03T01:02:48;21.90;99.90
23885;DHT22;12123;53.088;7.392;2022-08-03T01:05:15;21.90;99.90
23885;DHT22;12123;53.088;7.392;2022-08-03T01:11:15;21.80;99.90
23885;DHT22;12123;53.088;7.392;2022-08-03T01:14:02;21.90;99.90
23885;DHT22;12123;53.088;7.392;2022-08-03T01:16:56;22.00;99.90
23885;DHT22;12123;53.088;7.392;2022-08-03T01:22:17;22.00;99.90
23885;DHT22;12123;53.088;7.392;2022-08-03T01:30:41;22.10;99.90
23885;DHT22;12123;53.088;7.392;2022-08-03T01:33:14;22.10;99.90
23885;DHT22;12123;53.088;7.392;2022-08-03T01:36:10;22.10;99.90
23885;DHT22;12123;53.088;7.392;2022-08-03T01:38:43;22.10;99.90
23885;DHT22;12123;53.088;7.392;2022-08-03T01:41:17;22.10;99.90
23885;DHT22;12123;53.088;7.392;2022-08-03T01:43:47;22.10;99.90
23885;DHT22;12123;53.088;7.392;2022-08-03T01:46:37;22.20;99.90
23885;DHT22;12123;53.088;7.392;2022-08-03T01:49:06;22.20;99.90
23885;DHT22;12123;53.088;7.392;2022-08-03T01:51:41;22.20;99.90
23885;DHT22;12123;53.088;7.392;2022-08-03T01:54:29;22.20;99.90
23885;DHT22;12123;53.088;7.392;2022-08-03T01:56:58;22.30;99.90
23885;DHT22;12123;53.088;7.392;2022-08-03T01:59:26;22.30;99.90
23885;DHT22;12123;53.088;7.392;2022-08-03T02:01:55;22.30;99.90
23885;DHT22;12123;53.088;7.392;2022-08-03T02:04:44;22.40;99.90
23885;DHT22;12123;53.088;7.392;2022-08-03T02:07:13;22.40;99.90
23885;DHT22;12123;53.088;7.392;2022-08-03T02:09:43;22.40;99.90
23885;DHT22;12123;53.088;7.392;2022-08-03T02:12:11;22.40;99.90
23885;DHT22;12123;53.088;7.392;2022-08-03T02:14:40;22.40;99.90
23885;DHT22;12123;53.088;7.392;2022-08-03T02:17:09;22.40;99.90
23885;DHT22;12123;53.088;7.392;2022-08-03T02:19:38;22.50;99.90
23885;DHT22;12123;53.088;7.392;2022-08-03T02:22:09;22.70;99.90
23885;DHT22;12123;53.088;7.392;2022-08-03T02:24:37;22.70;99.90
23885;DHT22;12123;53.088;7.392;2022-08-03T02:27:13;22.70;99.90
23885;DHT22;12123;53.088;7.392;2022-08-03T02:29:43;22.70;99.90
23885;DHT22;12123;53.088;7.392;2022-08-03T02:32:16;22.70;99.90
23885;DHT22;12123;53.088;7.392;2022-08-03T02:34:46;23.00;99.90
23885;DHT22;12123;53.088;7.392;2022-08-03T02:37:18;22.90;99.90
23885;DHT22;12123;53.088;7.392;2022-08-03T02:39:46;23.00;99.90
23885;DHT22;12123;53.088;7.392;2022-08-03T02:42:14;23.00;99.90
23885;DHT22;12123;53.088;7.392;2022-08-03T02:44:44;23.00;99.90
23885;DHT22;12123;53.088;7.392;2022-08-03T02:47:13;23.10;99.90
23885;DHT22;12123;53.088;7.392;2022-08-03T02:49:42;22.90;99.90
23885;DHT22;12123;53.088;7.392;2022-08-03T02:52:19;22.90;99.90
23885;DHT22;12123;53.088;7.392;2022-08-03T02:54:48;22.90;99.90
23885;DHT22;12123;53.088;7.392;2022-08-03T02:57:16;22.90;99.90
23885;DHT22;12123;53.088;7.392;2022-08-03T02:59:45;22.80;99.90
23885;DHT22;12123;53.088;7.392;2022-08-03T03:02:14;22.70;99.90
23885;DHT22;12123;53.088;7.392;2022-08-03T03:04:43;22.60;99.90
23885;DHT22;12123;53.088;7.392;2022-08-03T03:07:31;22.60;99.90
23885;DHT22;12123;53.088;7.392;2022-08-03T03:10:19;22.50;99.90
23885;DHT22;12123;53.088;7.392;2022-08-03T03:12:52;22.40;99.90
23885;DHT22;12123;53.088;7.392;2022-08-03T03:15:22;22.30;99.90
23885;DHT22;12123;53.088;7.392;2022-08-03T03:17:50;22.40;99.90
23885;DHT22;12123;53.088;7.392;2022-08-03T03:20:17;22.30;99.90
23885;DHT22;12123;53.088;7.392;2022-08-03T03:22:58;22.30;99.90
23885;DHT22;12123;53.088;7.392;2022-08-03T03:25:32;22.30;99.90
23885;DHT22;12123;53.088;7.392;2022-08-03T03:28:00;22.30;99.90
23885;DHT22;12123;53.088;7.392;2022-08-03T03:30:28;22.30;99.90
23885;DHT22;12123;53.088;7.392;2022-08-03T03:32:57;22.20;99.90
23885;DHT22;12123;53.088;7.392;2022-08-03T03:35:25;22.20;99.90
23885;DHT22;12123;53.088;7.392;2022-08-03T03:37:53;22.10;99.90
23885;DHT22;12123;53.088;7.392;2022-08-03T03:40:21;22.20;99.90
23885;DHT22;12123;53.088;7.392;2022-08-03T03:42:49;22.20;99.90
23885;DHT22;12123;53.088;7.392;2022-08-03T03:45:16;22.20;99.90
23885;DHT22;12123;53.088;7.392;2022-08-03T03:47:44;22.30;99.90
23885;DHT22;12123;53.088;7.392;2022-08-03T03:50:11;22.30;99.90
23885;DHT22;12123;53.088;7.392;2022-08-03T03:52:38;22.30;99.90
23885;DHT22;12123;53.088;7.392;2022-08-03T03:55:05;22.30;99.90
23885;DHT22;12123;53.088;7.392;2022-08-03T03:57:33;22.30;99.90
23885;DHT22;12123;53.088;7.392;2022-08-03T04:00:00;22.40;99.90
23885;DHT22;12123;53.088;7.392;2022-08-03T04:02:27;22.40;99.90
23885;DHT22;12123;53.088;7.392;2022-08-03T04:04:54;22.50;99.90
23885;DHT22;12123;53.088;7.392;2022-08-03T04:07:47;22.50;99.90
23885;DHT22;12123;53.088;7.392;2022-08-03T04:10:35;22.50;99.90
23885;DHT22;12123;53.088;7.392;2022-08-03T04:13:22;22.50;99.90
23885;DHT22;12123;53.088;7.392;2022-08-03T04:15:50;22.60;99.90
23885;DHT22;12123;53.088;7.392;2022-08-03T04:18:18;22.60;99.90
23885;DHT22;12123;53.088;7.392;2022-08-03T04:20:46;22.70;99.90
23885;DHT22;12123;53.088;7.392;2022-08-03T04:23:15;22.80;99.90
23885;DHT22;12123;53.088;7.392;2022-08-03T04:25:45;22.90;99.90
23885;DHT22;12123;53.088;7.392;2022-08-03T04:28:14;22.90;99.90
23885;DHT22;12123;53.088;7.392;2022-08-03T04:30:58;22.80;99.90
23885;DHT22;12123;53.088;7.392;2022-08-03T04:33:28;22.70;99.90
23885;DHT22;12123;53.088;7.392;2022-08-03T04:35:59;22.80;99.90
23885;DHT22;12123;53.088;7.392;2022-08-03T04:38:33;22.80;99.90
23885;DHT22;12123;53.088;7.392;2022-08-03T04:41:02;22.80;99.90
23885;DHT22;12123;53.088;7.392;2022-08-03T04:43:32;22.80;99.90
23885;DHT22;12123;53.088;7.392;2022-08-03T04:46:00;22.90;99.90
23885;DHT22;12123;53.088;7.392;2022-08-03T04:48:28;22.90;99.90
23885;DHT22;12123;53.088;7.392;2022-08-03T04:50:55;22.70;99.90
23885;DHT22;12123;53.088;7.392;2022-08-03T04:53:22;22.80;99.90
23885;DHT22;12123;53.088;7.392;2022-08-03T04:55:49;22.70;99.90
23885;DHT22;12123;53.088;7.392;2022-08-03T04:58:16;22.70;99.90
23885;DHT22;12123;53.088;7.392;2022-08-03T05:00:43;22.80;99.90
23885;DHT22;12123;53.088;7.392;2022-08-03T05:03:11;22.80;99.90
23885;DHT22;12123;53.088;7.392;2022-08-03T05:05:51;22.80;99.90
23885;DHT22;12123;53.088;7.392;2022-08-03T05:08:28;22.80;99.90
23885;DHT22;12123;53.088;7.392;2022-08-03T05:10:55;22.80;99.90
23885;DHT22;12123;53.088;7.392;2022-08-03T05:13:25;22.70;99.90
23885;DHT22;12123;53.088;7.392;2022-08-03T05:15:52;22.70;99.90
23885;DHT22;12123;53.088;7.392;2022-08-03T05:18:19;22.70;99.90
23885;DHT22;12123;53.088;7.392;2022-08-03T05:20:46;22.70;99.90
23885;DHT22;12123;53.088;7.392;2022-08-03T05:23:13;22.70;99.90
23885;DHT22;12123;53.088;7.392;2022-08-03T05:25:40;22.80;99.90
23885;DHT22;12123;53.088;7.392;2022-08-03T05:28:15;22.70;99.90
23885;DHT22;12123;53.088;7.392;2022-08-03T05:30:42;22.80;99.90
23885;DHT22;12123;53.088;7.392;2022-08-03T05:33:09;22.60;99.90
23885;DHT22;12123;53.088;7.392;2022-08-03T05:35:36;22.70;99.90
23885;DHT22;12123;53.088;7.392;2022-08-03T05:38:25;22.80;99.90
23885;DHT22;12123;53.088;7.392;2022-08-03T05:41:04;22.70;99.90
23885;DHT22;12123;53.088;7.392;2022-08-03T05:43:53;22.70;99.90
23885;DHT22;12123;53.088;7.392;2022-08-03T05:46:21;22.90;99.90
23885;DHT22;12123;53.088;7.392;2022-08-03T05:48:48;22.90;99.90
23885;DHT22;12123;53.088;7.392;2022-08-03T05:51:15;22.90;99.90
23885;DHT22;12123;53.088;7.392;2022-08-03T05:53:43;22.80;99.90
23885;DHT22;12123;53.088;7.392;2022-08-03T05:56:10;22.90;99.90
23885;DHT22;12123;53.088;7.392;2022-08-03T05:58:45;23.00;99.90
23885;DHT22;12123;53.088;7.392;2022-08-03T06:01:14;23.30;99.90
23885;DHT22;12123;53.088;7.392;2022-08-03T06:03:41;22.90;99.90
23885;DHT22;12123;53.088;7.392;2022-08-03T06:06:08;23.10;99.90
23885;DHT22;12123;53.088;7.392;2022-08-03T06:08:35;23.10;99.90
23885;DHT22;12123;53.088;7.392;2022-08-03T06:11:02;23.00;99.90
23885;DHT22;12123;53.088;7.392;2022-08-03T06:13:30;23.10;99.90
23885;DHT22;12123;53.088;7.392;2022-08-03T06:15:57;23.40;99.90
23885;DHT22;12123;53.088;7.392;2022-08-03T06:18:24;23.20;99.90
23885;DHT22;12123;53.088;7.392;2022-08-03T06:20:52;23.30;99.90
23885;DHT22;12123;53.088;7.392;2022-08-03T06:23:20;23.20;99.90
23885;DHT22;12123;53.088;7.392;2022-08-03T06:25:47;23.20;99.90
23885;DHT22;12123;53.088;7.392;2022-08-03T06:28:14;23.30;99.90
23885;DHT22;12123;53.088;7.392;2022-08-03T06:31:02;23.30;99.90
23885;DHT22;12123;53.088;7.392;2022-08-03T06:33:32;23.70;99.90
23885;DHT22;12123;53.088;7.392;2022-08-03T06:36:19;23.90;99.90
23885;DHT22;12123;53.088;7.392;2022-08-03T06:38:46;23.70;99.90
23885;DHT22;12123;53.088;7.392;2022-08-03T06:41:13;23.50;99.90
23885;DHT22;12123;53.088;7.392;2022-08-03T06:43:40;23.70;99.90
23885;DHT22;12123;53.088;7.392;2022-08-03T06:46:27;24.00;99.90
23885;DHT22;12123;53.088;7.392;2022-08-03T06:48:54;24.00;99.90
23885;DHT22;12123;53.088;7.392;2022-08-03T06:51:22;23.70;99.90
23885;DHT22;12123;53.088;7.392;2022-08-03T06:54:09;23.70;99.90
23885;DHT22;12123;53.088;7.392;2022-08-03T06:56:36;23.90;99.90
23885;DHT22;12123;53.088;7.392;2022-08-03T06:59:03;23.80;99.90
23885;DHT22;12123;53.088;7.392;2022-08-03T07:01:30;23.80;99.90
23885;DHT22;12123;53.088;7.392;2022-08-03T07:03:57;23.60;99.90
23885;DHT22;12123;53.088;7.392;2022-08-03T07:06:24;23.70;99.90
23885;DHT22;12123;53.088;7.392;2022-08-03T07:08:51;23.90;99.90
23885;DHT22;12123;53.088;7.392;2022-08-03T07:11:24;23.90;99.90
23885;DHT22;12123;53.088;7.392;2022-08-03T07:13:51;23.90;99.90
23885;DHT22;12123;53.088;7.392;2022-08-03T07:16:18;24.00;99.90
23885;DHT22;12123;53.088;7.392;2022-08-03T07:18:45;23.90;99.90
23885;DHT22;12123;53.088;7.392;2022-08-03T07:21:12;24.00;99.90
23885;DHT22;12123;53.088;7.392;2022-08-03T07:23:39;23.90;99.90
23885;DHT22;12123;53.088;7.392;2022-08-03T07:26:06;23.70;99.90
23885;DHT22;12123;53.088;7.392;2022-08-03T07:28:33;24.00;99.90
23885;DHT22;12123;53.088;7.392;2022-08-03T07:31:00;24.50;99.90
23885;DHT22;12123;53.088;7.392;2022-08-03T07:33:26;24.50;99.90
23885;DHT22;12123;53.088;7.392;2022-08-03T07:35:53;24.30;99.90
23885;DHT22;12123;53.088;7.392;2022-08-03T07:38:20;24.20;99.90
23885;DHT22;12123;53.088;7.392;2022-08-03T07:40:47;24.60;99.90
23885;DHT22;12123;53.088;7.392;2022-08-03T07:45:44;24.60;99.90
23885;DHT22;12123;53.088;7.392;2022-08-03T07:48:11;25.20;99.90
23885;DHT22;12123;53.088;7.392;2022-08-03T07:50:38;25.00;99.90
23885;DHT22;12123;53.088;7.392;2022-08-03T07:53:05;24.90;99.90
23885;DHT22;12123;53.088;7.392;2022-08-03T07:55:32;24.60;99.90
23885;DHT22;12123;53.088;7.392;2022-08-03T07:58:08;24.90;99.90
23885;DHT22;12123;53.088;7.392;2022-08-03T08:00:37;24.90;99.90
23885;DHT22;12123;53.088;7.392;2022-08-03T08:03:04;24.70;99.90
23885;DHT22;12123;53.088;7.392;2022-08-03T08:05:32;25.00;99.90
23885;DHT22;12123;53.088;7.392;2022-08-03T08:08:03;25.60;99.90
23885;DHT22;12123;53.088;7.392;2022-08-03T08:10:30;25.80;99.90
23885;DHT22;12123;53.088;7.392;2022-08-03T08:12:58;26.20;99.90
23885;DHT22;12123;53.088;7.392;2022-08-03T08:15:25;26.50;33.80
23885;DHT22;12123;53.088;7.392;2022-08-03T08:17:55;26.50;99.90
23885;DHT22;12123;53.088;7.392;2022-08-03T08:20:24;26.20;99.90
23885;DHT22;12123;53.088;7.392;2022-08-03T08:22:59;26.30;99.90
23885;DHT22;12123;53.088;7.392;2022-08-03T08:25:29;26.30;99.90
23885;DHT22;12123;53.088;7.392;2022-08-03T08:27:57;26.60;99.90
23885;DHT22;12123;53.088;7.392;2022-08-03T08:30:48;27.30;39.20
23885;DHT22;12123;53.088;7.392;2022-08-03T08:33:15;27.30;99.90
23885;DHT22;12123;53.088;7.392;2022-08-03T08:35:50;27.60;99.90
23885;DHT22;12123;53.088;7.392;2022-08-03T08:38:18;27.20;99.90
23885;DHT22;12123;53.088;7.392;2022-08-03T08:40:45;27.20;99.90
23885;DHT22;12123;53.088;7.392;2022-08-03T08:43:13;27.30;99.90
23885;DHT22;12123;53.088;7.392;2022-08-03T08:45:40;27.20;61.20
23885;DHT22;12123;53.088;7.392;2022-08-03T08:48:09;27.20;43.80
23885;DHT22;12123;53.088;7.392;2022-08-03T08:50:38;27.70;1.00
23885;DHT22;12123;53.088;7.392;2022-08-03T08:53:06;27.50;99.90
23885;DHT22;12123;53.088;7.392;2022-08-03T08:55:43;27.00;99.90
23885;DHT22;12123;53.088;7.392;2022-08-03T08:58:29;28.00;99.90
23885;DHT22;12123;53.088;7.392;2022-08-03T09:00:56;28.50;99.90
23885;DHT22;12123;53.088;7.392;2022-08-03T09:03:23;29.20;1.00
23885;DHT22;12123;53.088;7.392;2022-08-03T09:05:57;28.60;99.90
23885;DHT22;12123;53.088;7.392;2022-08-03T09:08:25;29.50;99.90
23885;DHT22;12123;53.088;7.392;2022-08-03T09:10:52;29.90;99.90
23885;DHT22;12123;53.088;7.392;2022-08-03T09:13:18;30.40;99.90
23885;DHT22;12123;53.088;7.392;2022-08-03T09:15:45;29.80;99.90
23885;DHT22;12123;53.088;7.392;2022-08-03T09:18:29;28.80;99.90
23885;DHT22;12123;53.088;7.392;2022-08-03T09:21:22;28.20;99.90
23885;DHT22;12123;53.088;7.392;2022-08-03T09:24:01;28.70;99.90
23885;DHT22;12123;53.088;7.392;2022-08-03T09:26:35;29.30;99.90
23885;DHT22;12123;53.088;7.392;2022-08-03T09:29:08;29.30;99.90
23885;DHT22;12123;53.088;7.392;2022-08-03T09:31:41;28.60;99.90
23885;DHT22;12123;53.088;7.392;2022-08-03T09:34:14;29.70;99.90
23885;DHT22;12123;53.088;7.392;2022-08-03T09:36:44;29.80;99.90
23885;DHT22;12123;53.088;7.392;2022-08-03T09:39:17;30.50;99.90
23885;DHT22;12123;53.088;7.392;2022-08-03T09:41:47;30.60;99.90
23885;DHT22;12123;53.088;7.392;2022-08-03T09:44:14;30.70;97.00
23885;DHT22;12123;53.088;7.392;2022-08-03T09:46:55;30.80;62.30
23885;DHT22;12123;53.088;7.392;2022-08-03T09:49:23;31.10;50.10
23885;DHT22;12123;53.088;7.392;2022-08-03T09:51:51;30.30;39.80
23885;DHT22;12123;53.088;7.392;2022-08-03T09:54:39;32.00;41.50
23885;DHT22;12123;53.088;7.392;2022-08-03T09:57:06;32.40;29.00
23885;DHT22;12123;53.088;7.392;2022-08-03T09:59:33;31.50;8.10
23885;DHT22;12123;53.088;7.392;2022-08-03T10:02:00;30.20;8.40
23885;DHT22;12123;53.088;7.392;2022-08-03T10:04:27;31.20;14.80
23885;DHT22;12123;53.088;7.392;2022-08-03T10:07:04;32.20;9.80
23885;DHT22;12123;53.088;7.392;2022-08-03T10:09:31;32.10;1.00
23885;DHT22;12123;53.088;7.392;2022-08-03T10:12:10;31.60;2.10
23885;DHT22;12123;53.088;7.392;2022-08-03T10:14:38;31.70;1.00
23885;DHT22;12123;53.088;7.392;2022-08-03T10:17:08;31.60;1.00
23885;DHT22;12123;53.088;7.392;2022-08-03T10:19:35;31.70;1.00
23885;DHT22;12123;53.088;7.392;2022-08-03T10:22:13;31.80;1.00
23885;DHT22;12123;53.088;7.392;2022-08-03T10:24:55;31.60;1.00
23885;DHT22;12123;53.088;7.392;2022-08-03T10:27:22;31.10;1.00
23885;DHT22;12123;53.088;7.392;2022-08-03T10:29:54;31.90;1.00
23885;DHT22;12123;53.088;7.392;2022-08-03T10:32:27;31.80;1.00
23885;DHT22;12123;53.088;7.392;2022-08-03T10:35:06;32.50;1.00
23885;DHT22;12123;53.088;7.392;2022-08-03T10:38:03;32.80;1.00
23885;DHT22;12123;53.088;7.392;2022-08-03T10:40:33;32.60;1.00
23885;DHT22;12123;53.088;7.392;2022-08-03T10:43:25;34.00;1.00
23885;DHT22;12123;53.088;7.392;2022-08-03T10:45:53;33.90;1.00
23885;DHT22;12123;53.088;7.392;2022-08-03T10:48:21;32.80;1.00
23885;DHT22;12123;53.088;7.392;2022-08-03T10:50:48;33.70;1.00
23885;DHT22;12123;53.088;7.392;2022-08-03T10:53:15;33.50;1.00
23885;DHT22;12123;53.088;7.392;2022-08-03T10:56:00;33.60;1.00
23885;DHT22;12123;53.088;7.392;2022-08-03T10:59:06;34.40;1.00
23885;DHT22;12123;53.088;7.392;2022-08-03T11:01:55;33.70;1.00
23885;DHT22;12123;53.088;7.392;2022-08-03T11:04:27;33.40;1.00
23885;DHT22;12123;53.088;7.392;2022-08-03T11:09:47;33.90;1.00
23885;DHT22;12123;53.088;7.392;2022-08-03T11:12:29;34.90;1.00
23885;DHT22;12123;53.088;7.392;2022-08-03T11:15:07;33.90;99.90
23885;DHT22;12123;53.088;7.392;2022-08-03T11:17:35;33.80;1.00
23885;DHT22;12123;53.088;7.392;2022-08-03T11:23:10;34.80;99.90
23885;DHT22;12123;53.088;7.392;2022-08-03T11:26:09;35.60;99.90
23885;DHT22;12123;53.088;7.392;2022-08-03T11:28:36;35.20;99.90
23885;DHT22;12123;53.088;7.392;2022-08-03T11:34:12;35.70;99.90
23885;DHT22;12123;53.088;7.392;2022-08-03T11:39:47;35.70;99.90
23885;DHT22;12123;53.088;7.392;2022-08-03T11:44:59;36.30;99.90
23885;DHT22;12123;53.088;7.392;2022-08-03T11:47:28;35.50;99.90
23885;DHT22;12123;53.088;7.392;2022-08-03T11:49:57;35.30;99.90
23885;DHT22;12123;53.088;7.392;2022-08-03T11:52:24;34.20;99.90
23885;DHT22;12123;53.088;7.392;2022-08-03T11:54:54;35.60;99.90
23885;DHT22;12123;53.088;7.392;2022-08-03T11:57:33;34.20;99.90
23885;DHT22;12123;53.088;7.392;2022-08-03T12:00:23;35.70;99.90
23885;DHT22;12123;53.088;7.392;2022-08-03T12:03:06;35.60;99.90
23885;DHT22;12123;53.088;7.392;2022-08-03T12:05:45;35.50;99.90
23885;DHT22;12123;53.088;7.392;2022-08-03T12:10:54;36.30;99.90
23885;DHT22;12123;53.088;7.392;2022-08-03T12:13:22;35.20;99.90
23885;DHT22;12123;53.088;7.392;2022-08-03T12:16:10;36.90;99.90
23885;DHT22;12123;53.088;7.392;2022-08-03T12:18:43;36.00;99.90
23885;DHT22;12123;53.088;7.392;2022-08-03T12:21:11;36.90;99.90
23885;DHT22;12123;53.088;7.392;2022-08-03T12:23:38;37.40;99.90
23885;DHT22;12123;53.088;7.392;2022-08-03T12:26:07;37.30;99.90
23885;DHT22;12123;53.088;7.392;2022-08-03T12:28:35;38.10;99.90
23885;DHT22;12123;53.088;7.392;2022-08-03T12:31:07;38.20;99.90
23885;DHT22;12123;53.088;7.392;2022-08-03T12:36:25;37.10;99.90
23885;DHT22;12123;53.088;7.392;2022-08-03T12:38:59;35.70;99.90
23885;DHT22;12123;53.088;7.392;2022-08-03T12:41:31;36.50;99.90
23885;DHT22;12123;53.088;7.392;2022-08-03T12:44:01;35.70;99.90
23885;DHT22;12123;53.088;7.392;2022-08-03T12:46:31;36.80;99.90
23885;DHT22;12123;53.088;7.392;2022-08-03T12:51:29;36.40;99.90
23885;DHT22;12123;53.088;7.392;2022-08-03T12:53:58;36.80;99.90
23885;DHT22;12123;53.088;7.392;2022-08-03T12:56:25;37.60;99.90
23885;DHT22;12123;53.088;7.392;2022-08-03T12:58:53;36.70;99.90
23885;DHT22;12123;53.088;7.392;2022-08-03T13:01:20;37.50;99.90
23885;DHT22;12123;53.088;7.392;2022-08-03T13:03:51;37.30;99.90
23885;DHT22;12123;53.088;7.392;2022-08-03T13:06:23;38.90;99.90
23885;DHT22;12123;53.088;7.392;2022-08-03T13:09:02;38.50;99.90
23885;DHT22;12123;53.088;7.392;2022-08-03T13:11:29;36.10;99.90
23885;DHT22;12123;53.088;7.392;2022-08-03T13:14:16;36.50;99.90
23885;DHT22;12123;53.088;7.392;2022-08-03T13:16:48;36.40;99.90
23885;DHT22;12123;53.088;7.392;2022-08-03T13:19:15;36.70;99.90
23885;DHT22;12123;53.088;7.392;2022-08-03T13:21:43;36.80;99.90
23885;DHT22;12123;53.088;7.392;2022-08-03T13:24:31;37.40;99.90
23885;DHT22;12123;53.088;7.392;2022-08-03T13:26:59;37.80;99.90
23885;DHT22;12123;53.088;7.392;2022-08-03T13:29:25;36.70;99.90
23885;DHT22;12123;53.088;7.392;2022-08-03T13:31:52;35.70;99.90
23885;DHT22;12123;53.088;7.392;2022-08-03T13:34:19;36.40;99.90
23885;DHT22;12123;53.088;7.392;2022-08-03T13:36:50;36.90;99.90
23885;DHT22;12123;53.088;7.392;2022-08-03T13:39:35;37.50;99.90
23885;DHT22;12123;53.088;7.392;2022-08-03T13:42:23;38.20;99.90
23885;DHT22;12123;53.088;7.392;2022-08-03T13:44:52;37.80;99.90
23885;DHT22;12123;53.088;7.392;2022-08-03T13:47:19;37.80;99.90
23885;DHT22;12123;53.088;7.392;2022-08-03T13:49:47;35.70;99.90
23885;DHT22;12123;53.088;7.392;2022-08-03T13:52:32;36.50;99.90
23885;DHT22;12123;53.088;7.392;2022-08-03T13:54:59;38.20;99.90
23885;DHT22;12123;53.088;7.392;2022-08-03T13:57:27;38.30;99.90
23885;DHT22;12123;53.088;7.392;2022-08-03T14:00:15;36.30;99.90
23885;DHT22;12123;53.088;7.392;2022-08-03T14:03:00;36.60;99.90
23885;DHT22;12123;53.088;7.392;2022-08-03T14:05:38;37.30;99.90
23885;DHT22;12123;53.088;7.392;2022-08-03T14:08:05;36.60;99.90
23885;DHT22;12123;53.088;7.392;2022-08-03T14:10:34;36.80;99.90
23885;DHT22;12123;53.088;7.392;2022-08-03T14:13:01;37.20;99.90
23885;DHT22;12123;53.088;7.392;2022-08-03T14:15:28;36.10;99.90
23885;DHT22;12123;53.088;7.392;2022-08-03T14:17:56;36.60;99.90
23885;DHT22;12123;53.088;7.392;2022-08-03T14:20:25;36.30;99.90
23885;DHT22;12123;53.088;7.392;2022-08-03T14:23:03;36.50;99.90
23885;DHT22;12123;53.088;7.392;2022-08-03T14:25:30;35.40;99.90
23885;DHT22;12123;53.088;7.392;2022-08-03T14:28:18;35.30;99.90
23885;DHT22;12123;53.088;7.392;2022-08-03T14:30:45;34.80;99.90
23885;DHT22;12123;53.088;7.392;2022-08-03T14:33:13;35.20;99.90
23885;DHT22;12123;53.088;7.392;2022-08-03T14:35:40;35.10;99.90
23885;DHT22;12123;53.088;7.392;2022-08-03T14:38:07;34.80;99.90
23885;DHT22;12123;53.088;7.392;2022-08-03T14:40:34;35.10;99.90
23885;DHT22;12123;53.088;7.392;2022-08-03T14:43:00;35.10;99.90
23885;DHT22;12123;53.088;7.392;2022-08-03T14:45:28;34.00;99.90
23885;DHT22;12123;53.088;7.392;2022-08-03T14:47:54;35.70;99.90
23885;DHT22;12123;53.088;7.392;2022-08-03T14:50:41;34.90;99.90
23885;DHT22;12123;53.088;7.392;2022-08-03T14:53:15;34.80;99.90
23885;DHT22;12123;53.088;7.392;2022-08-03T14:55:44;35.10;99.90
23885;DHT22;12123;53.088;7.392;2022-08-03T14:58:21;35.20;99.90
23885;DHT22;12123;53.088;7.392;2022-08-03T15:00:50;35.30;99.90
23885;DHT22;12123;53.088;7.392;2022-08-03T15:03:18;34.20;99.90
23885;DHT22;12123;53.088;7.392;2022-08-03T15:05:55;35.20;99.90
23885;DHT22;12123;53.088;7.392;2022-08-03T15:08:23;34.70;99.90
23885;DHT22;12123;53.088;7.392;2022-08-03T15:10:54;34.60;99.90
23885;DHT22;12123;53.088;7.392;2022-08-03T15:13:21;35.40;99.90
23885;DHT22;12123;53.088;7.392;2022-08-03T15:15:48;35.30;99.90
23885;DHT22;12123;53.088;7.392;2022-08-03T15:18:15;34.60;99.90
23885;DHT22;12123;53.088;7.392;2022-08-03T15:20:42;34.70;99.90
23885;DHT22;12123;53.088;7.392;2022-08-03T15:23:14;33.40;99.90
23885;DHT22;12123;53.088;7.392;2022-08-03T15:25:45;33.60;99.90
23885;DHT22;12123;53.088;7.392;2022-08-03T15:28:32;34.00;99.90
23885;DHT22;12123;53.088;7.392;2022-08-03T15:30:59;35.10;99.90
23885;DHT22;12123;53.088;7.392;2022-08-03T15:33:27;35.70;99.90
23885;DHT22;12123;53.088;7.392;2022-08-03T15:35:55;34.50;99.90
23885;DHT22;12123;53.088;7.392;2022-08-03T15:38:22;34.00;99.90
23885;DHT22;12123;53.088;7.392;2022-08-03T15:40:52;34.00;99.90
23885;DHT22;12123;53.088;7.392;2022-08-03T15:43:21;34.40;99.90
23885;DHT22;12123;53.088;7.392;2022-08-03T15:45:48;34.60;99.90
23885;DHT22;12123;53.088;7.392;2022-08-03T15:48:35;34.50;99.90
23885;DHT22;12123;53.088;7.392;2022-08-03T15:51:03;34.80;99.90
23885;DHT22;12123;53.088;7.392;2022-08-03T15:53:30;33.40;99.90
23885;DHT22;12123;53.088;7.392;2022-08-03T15:55:56;33.30;99.90
23885;DHT22;12123;53.088;7.392;2022-08-03T15:58:23;33.30;99.90
23885;DHT22;12123;53.088;7.392;2022-08-03T16:01:15;33.30;99.90
23885;DHT22;12123;53.088;7.392;2022-08-03T16:03:45;33.30;99.90
23885;DHT22;12123;53.088;7.392;2022-08-03T16:06:12;32.70;99.90
23885;DHT22;12123;53.088;7.392;2022-08-03T16:08:39;32.50;99.90
23885;DHT22;12123;53.088;7.392;2022-08-03T16:11:06;32.40;99.90
23885;DHT22;12123;53.088;7.392;2022-08-03T16:13:33;32.50;99.90
23885;DHT22;12123;53.088;7.392;2022-08-03T16:16:19;32.20;99.90
23885;DHT22;12123;53.088;7.392;2022-08-03T16:18:46;32.40;99.90
23885;DHT22;12123;53.088;7.392;2022-08-03T16:21:13;32.30;99.90
23885;DHT22;12123;53.088;7.392;2022-08-03T16:23:45;32.40;99.90
23885;DHT22;12123;53.088;7.392;2022-08-03T16:26:13;32.10;99.90
23885;DHT22;12123;53.088;7.392;2022-08-03T16:28:40;32.40;99.90
23885;DHT22;12123;53.088;7.392;2022-08-03T16:31:07;32.20;99.90
23885;DHT22;12123;53.088;7.392;2022-08-03T16:33:34;31.70;99.90
23885;DHT22;12123;53.088;7.392;2022-08-03T16:36:02;31.50;99.90